La Cassidaigne — FT7120 — position and weather

sailwx.info

Track history (hours):
 
Tides and Currents Weather Stations Pressure Air Temp Water Temp Dewpoint Dewpoint Depression Visibility Wind Speed Wind Dir Waves Ship Positions

La Cassidaigne

Last reported at 2018-Feb-16 14:27 UTC. Time now 2018-Feb-20 10:06 UTC.
Position N 43°24' E 004°59'.

Length 16 m; draft 1 m.

Type: Ship. MMSI: 227005760.

Date/timePositionNaut miles runAvg speedWind from/ knotsBaromVisibWave heightAir tempDewpointWater temp
2018-Feb-16 14:27N 43°24' E 004°59'0 0.2
2018-Feb-16 13:58N 43°24' E 004°59'1 1.0
2018-Feb-16 13:26N 43°24' E 004°60'1 1.1
2018-Feb-16 12:57N 43°24' E 004°59'0 0.0
2018-Feb-16 12:27N 43°24' E 004°59'0 0.0
2018-Feb-16 11:57N 43°24' E 004°59'1 0.2
2018-Feb-16 06:51N 43°23' E 004°59'1 3.3
2018-Feb-16 06:30N 43°24' E 004°59'0 0.0
2018-Feb-15 22:31N 43°24' E 004°59'0 0.1
2018-Feb-15 22:30N 43°24' E 004°59'0 0.3
2018-Feb-15 22:00N 43°24' E 004°59'0 0.2
2018-Feb-15 21:21N 43°24' E 004°59'0 0.0
2018-Feb-15 20:57N 43°24' E 004°59'0 0.0
2018-Feb-15 20:27N 43°24' E 004°59'0 0.0
2018-Feb-15 19:57N 43°24' E 004°59'0 0.0
2018-Feb-15 19:27N 43°24' E 004°59'0 0.0
2018-Feb-15 18:57N 43°24' E 004°59'2 3.1
2018-Feb-15 18:24N 43°23' E 004°59'2 3.4
2018-Feb-15 17:55N 43°24' E 004°59'0 0.0
2018-Feb-15 17:19N 43°24' E 004°59'1 4.4
2018-Feb-15 16:59N 43°23' E 004°58'1 1.9
2018-Feb-15 16:14N 43°24' E 004°59'0 0.0
2018-Feb-15 14:49N 43°24' E 004°59'0 0.0
2018-Feb-15 14:25N 43°24' E 004°59'0 0.0
2018-Feb-15 13:37N 43°24' E 004°59'0 0.0
2018-Feb-15 13:25N 43°24' E 004°59'0 0.0
2018-Feb-15 12:55N 43°24' E 004°59'0 0.0
2018-Feb-15 12:25N 43°24' E 004°59'1 1.8
2018-Feb-15 11:48N 43°24' E 004°58'1 2.8
2018-Feb-15 11:25N 43°24' E 004°59'0 0.0
2018-Feb-15 10:55N 43°24' E 004°59'0 0.0
2018-Feb-15 10:19N 43°24' E 004°59'0 0.0
2018-Feb-15 10:00N 43°24' E 004°59'2 3.6
2018-Feb-15 09:30N 43°24' E 004°57'2 3.4
2018-Feb-15 09:00N 43°24' E 004°59'0 0.8
2018-Feb-15 08:28N 43°24' E 004°59'0 0.0
2018-Feb-15 07:58N 43°24' E 004°59'0 0.0
2018-Feb-14 21:55N 43°24' E 004°59'0 0.3
2018-Feb-14 21:28N 43°24' E 004°59'0 0.0
2018-Feb-14 16:04N 43°24' E 004°59'1 6.6
2018-Feb-14 15:59N 43°24' E 004°59'1 1.1
2018-Feb-14 15:28N 43°24' E 004°59'0 0.0
2018-Feb-14 14:58N 43°24' E 004°59'0 0.0
2018-Feb-14 14:28N 43°24' E 004°59'0 0.0
2018-Feb-14 13:58N 43°24' E 004°59'0 0.0
2018-Feb-14 13:22N 43°24' E 004°59'2 3.8
2018-Feb-14 12:50N 43°22' E 004°60'2 5.0
2018-Feb-14 12:26N 43°24' E 004°59'0 0.0
2018-Feb-14 11:50N 43°24' E 004°59'0 0.0
2018-Feb-14 11:26N 43°24' E 004°59'0 0.0
2018-Feb-14 10:56N 43°24' E 004°59'0 0.0
2018-Feb-14 10:26N 43°24' E 004°59'0 1.1
2018-Feb-14 10:00N 43°24' E 004°59'0 0.9
2018-Feb-14 09:29N 43°24' E 004°59'0 0.0
2018-Feb-14 08:59N 43°24' E 004°59'0 0.0
2018-Feb-14 08:29N 43°24' E 004°59'0 0.0
2018-Feb-14 07:58N 43°24' E 004°59'0 0.0
2018-Feb-14 07:28N 43°24' E 004°59'0 0.0
2018-Feb-14 06:58N 43°24' E 004°59'0 0.0
2018-Feb-13 17:43N 43°24' E 004°59'2 8.3
2018-Feb-13 17:29N 43°24' E 004°57'2 3.5
2018-Feb-13 16:54N 43°24' E 004°59'1 2.4
2018-Feb-13 16:30N 43°24' E 004°58'2 0.4
2018-Feb-13 11:29N 43°22' E 004°58'2 4.3
2018-Feb-13 10:54N 43°24' E 004°59'0 0.0
2018-Feb-13 10:30N 43°24' E 004°59'0 0.0
2018-Feb-13 10:00N 43°24' E 004°59'0 0.0
2018-Feb-13 09:30N 43°24' E 004°59'0 0.1
2018-Feb-13 09:00N 43°24' E 004°59'0 0.1
2018-Feb-13 08:26N 43°24' E 004°59'0 0.0
2018-Feb-13 07:58N 43°24' E 004°59'0 0.0
2018-Feb-13 07:28N 43°24' E 004°59'0 0.0
2018-Feb-13 06:58N 43°24' E 004°59'0 0.0
2018-Feb-12 23:27N 43°24' E 004°59'4 7.3
2018-Feb-12 22:58N 43°21' E 004°60'3 6.5
2018-Feb-12 22:30N 43°24' E 004°59'1 0.1
2018-Feb-12 15:12N 43°24' E 004°59'0 0.0
2018-Feb-12 14:54N 43°24' E 004°59'0 0.0
2018-Feb-12 14:30N 43°24' E 004°59'0 0.0
2018-Feb-12 14:00N 43°24' E 004°59'0 0.0
2018-Feb-12 13:30N 43°24' E 004°59'0 0.0
2018-Feb-12 13:00N 43°24' E 004°59'0 0.0
2018-Feb-12 12:30N 43°24' E 004°59'0 0.0
2018-Feb-12 12:00N 43°24' E 004°59'0 0.0
2018-Feb-12 11:30N 43°24' E 004°59'0 0.0
2018-Feb-12 10:54N 43°24' E 004°59'0 0.0
2018-Feb-12 10:30N 43°24' E 004°59'0 0.0
2018-Feb-12 10:00N 43°24' E 004°59'0 0.0
2018-Feb-12 09:30N 43°24' E 004°59'0 0.0
2018-Feb-12 09:00N 43°24' E 004°59'0 0.0
2018-Feb-12 08:30N 43°24' E 004°59'0 0.0
2018-Feb-12 08:00N 43°24' E 004°59'0 0.0
2018-Feb-12 07:30N 43°24' E 004°59'0 0.0
2018-Feb-11 13:47N 43°24' E 004°59'2 6.7
2018-Feb-11 13:29N 43°22' E 004°60'2 2.8
2018-Feb-11 12:45N 43°24' E 004°59'0 0.0
2018-Feb-11 12:27N 43°24' E 004°59'0 0.0
2018-Feb-11 11:57N 43°24' E 004°59'0 0.0
2018-Feb-11 11:27N 43°24' E 004°59'0 0.0
2018-Feb-11 11:00N 43°24' E 004°59'3 5.1
2018-Feb-11 10:26N 43°21' E 004°60'3 6.2
2018-Feb-11 10:00N 43°24' E 004°59'0 0.8
2018-Feb-11 09:30N 43°24' E 004°59'3 5.9
2018-Feb-11 08:59N 43°21' E 005°00'4 6.3
2018-Feb-11 08:25N 43°24' E 004°59'0 0.0
2018-Feb-11 07:55N 43°24' E 004°59'0 0.0
2018-Feb-11 07:25N 43°24' E 004°59'0 0.0
2018-Feb-11 06:49N 43°24' E 004°59'0 0.0
2018-Feb-11 06:25N 43°24' E 004°59'1 1.2
2018-Feb-11 06:00N 43°24' E 004°59'3 3.5
2018-Feb-11 05:08N 43°21' E 004°59'213.2
2018-Feb-11 05:00N 43°23' E 004°59'2 3.1
2018-Feb-11 04:26N 43°24' E 004°59'0 0.0
2018-Feb-10 09:24N 43°24' E 004°59'0 0.0
2018-Feb-10 08:58N 43°24' E 004°59'0 0.0
2018-Feb-10 08:27N 43°24' E 004°59'0 0.0
2018-Feb-09 12:00N 43°24' E 004°59'2 0.1
2018-Feb-08 09:00N 43°22' E 004°59'2 0.1
2018-Feb-07 09:29N 43°24' E 004°59'0 0.0
2018-Feb-07 08:59N 43°24' E 004°59'0 0.0
2018-Feb-07 08:29N 43°24' E 004°59'0 0.0
2018-Feb-07 08:00N 43°24' E 004°59'2 2.9
2018-Feb-07 07:13N 43°22' E 004°59'210.5
2018-Feb-07 07:00N 43°24' E 004°59'0 0.0
2018-Feb-07 02:42N 43°24' E 004°59'2 9.0
2018-Feb-07 02:27N 43°22' E 004°59'2 4.6
2018-Feb-07 01:56N 43°24' E 004°59'0 0.0
2018-Feb-06 15:30N 43°24' E 004°59'0 0.0
2018-Feb-06 15:00N 43°24' E 004°59'  
Track history (hours):
 
Tides and Currents Weather Stations Pressure Air Temp Water Temp Dewpoint Dewpoint Depression Visibility Wind Speed Wind Dir Waves Ship Positions

La Cassidaigne

Last reported at 2018-Feb-16 14:27 UTC. Time now 2018-Feb-20 10:06 UTC.
Position N 43°24' E 004°59'.

Length 16 m; draft 1 m.

Type: Ship. MMSI: 227005760.

Date/timePositionNaut miles runAvg speedWind from/ knotsBaromVisibWave heightAir tempDewpointWater temp
2018-Feb-16 14:27N 43°24' E 004°59'0 0.2
2018-Feb-16 13:58N 43°24' E 004°59'1 1.0
2018-Feb-16 13:26N 43°24' E 004°60'1 1.1
2018-Feb-16 12:57N 43°24' E 004°59'0 0.0
2018-Feb-16 12:27N 43°24' E 004°59'0 0.0
2018-Feb-16 11:57N 43°24' E 004°59'1 0.2
2018-Feb-16 06:51N 43°23' E 004°59'1 3.3
2018-Feb-16 06:30N 43°24' E 004°59'0 0.0
2018-Feb-15 22:31N 43°24' E 004°59'0 0.1
2018-Feb-15 22:30N 43°24' E 004°59'0 0.3
2018-Feb-15 22:00N 43°24' E 004°59'0 0.2
2018-Feb-15 21:21N 43°24' E 004°59'0 0.0
2018-Feb-15 20:57N 43°24' E 004°59'0 0.0
2018-Feb-15 20:27N 43°24' E 004°59'0 0.0
2018-Feb-15 19:57N 43°24' E 004°59'0 0.0
2018-Feb-15 19:27N 43°24' E 004°59'0 0.0
2018-Feb-15 18:57N 43°24' E 004°59'2 3.1
2018-Feb-15 18:24N 43°23' E 004°59'2 3.4
2018-Feb-15 17:55N 43°24' E 004°59'0 0.0
2018-Feb-15 17:19N 43°24' E 004°59'1 4.4
2018-Feb-15 16:59N 43°23' E 004°58'1 1.9
2018-Feb-15 16:14N 43°24' E 004°59'0 0.0
2018-Feb-15 14:49N 43°24' E 004°59'0 0.0
2018-Feb-15 14:25N 43°24' E 004°59'0 0.0
2018-Feb-15 13:37N 43°24' E 004°59'0 0.0
2018-Feb-15 13:25N 43°24' E 004°59'0 0.0
2018-Feb-15 12:55N 43°24' E 004°59'0 0.0
2018-Feb-15 12:25N 43°24' E 004°59'1 1.8
2018-Feb-15 11:48N 43°24' E 004°58'1 2.8
2018-Feb-15 11:25N 43°24' E 004°59'0 0.0
2018-Feb-15 10:55N 43°24' E 004°59'0 0.0
2018-Feb-15 10:19N 43°24' E 004°59'0 0.0
2018-Feb-15 10:00N 43°24' E 004°59'2 3.6
2018-Feb-15 09:30N 43°24' E 004°57'2 3.4
2018-Feb-15 09:00N 43°24' E 004°59'0 0.8
2018-Feb-15 08:28N 43°24' E 004°59'0 0.0
2018-Feb-15 07:58N 43°24' E 004°59'0 0.0
2018-Feb-14 21:55N 43°24' E 004°59'0 0.3
2018-Feb-14 21:28N 43°24' E 004°59'0 0.0
2018-Feb-14 16:04N 43°24' E 004°59'1 6.6
2018-Feb-14 15:59N 43°24' E 004°59'1 1.1
2018-Feb-14 15:28N 43°24' E 004°59'0 0.0
2018-Feb-14 14:58N 43°24' E 004°59'0 0.0
2018-Feb-14 14:28N 43°24' E 004°59'0 0.0
2018-Feb-14 13:58N 43°24' E 004°59'0 0.0
2018-Feb-14 13:22N 43°24' E 004°59'2 3.8
2018-Feb-14 12:50N 43°22' E 004°60'2 5.0
2018-Feb-14 12:26N 43°24' E 004°59'0 0.0
2018-Feb-14 11:50N 43°24' E 004°59'0 0.0
2018-Feb-14 11:26N 43°24' E 004°59'0 0.0
2018-Feb-14 10:56N 43°24' E 004°59'0 0.0
2018-Feb-14 10:26N 43°24' E 004°59'0 1.1
2018-Feb-14 10:00N 43°24' E 004°59'0 0.9
2018-Feb-14 09:29N 43°24' E 004°59'0 0.0
2018-Feb-14 08:59N 43°24' E 004°59'0 0.0
2018-Feb-14 08:29N 43°24' E 004°59'0 0.0
2018-Feb-14 07:58N 43°24' E 004°59'0 0.0
2018-Feb-14 07:28N 43°24' E 004°59'0 0.0
2018-Feb-14 06:58N 43°24' E 004°59'0 0.0
2018-Feb-13 17:43N 43°24' E 004°59'2 8.3
2018-Feb-13 17:29N 43°24' E 004°57'2 3.5
2018-Feb-13 16:54N 43°24' E 004°59'1 2.4
2018-Feb-13 16:30N 43°24' E 004°58'2 0.4
2018-Feb-13 11:29N 43°22' E 004°58'2 4.3
2018-Feb-13 10:54N 43°24' E 004°59'0 0.0
2018-Feb-13 10:30N 43°24' E 004°59'0 0.0
2018-Feb-13 10:00N 43°24' E 004°59'0 0.0
2018-Feb-13 09:30N 43°24' E 004°59'0 0.1
2018-Feb-13 09:00N 43°24' E 004°59'0 0.1
2018-Feb-13 08:26N 43°24' E 004°59'0 0.0
2018-Feb-13 07:58N 43°24' E 004°59'0 0.0
2018-Feb-13 07:28N 43°24' E 004°59'0 0.0
2018-Feb-13 06:58N 43°24' E 004°59'0 0.0
2018-Feb-12 23:27N 43°24' E 004°59'4 7.3
2018-Feb-12 22:58N 43°21' E 004°60'3 6.5
2018-Feb-12 22:30N 43°24' E 004°59'1 0.1
2018-Feb-12 15:12N 43°24' E 004°59'0 0.0
2018-Feb-12 14:54N 43°24' E 004°59'0 0.0
2018-Feb-12 14:30N 43°24' E 004°59'0 0.0
2018-Feb-12 14:00N 43°24' E 004°59'0 0.0
2018-Feb-12 13:30N 43°24' E 004°59'0 0.0
2018-Feb-12 13:00N 43°24' E 004°59'0 0.0
2018-Feb-12 12:30N 43°24' E 004°59'0 0.0
2018-Feb-12 12:00N 43°24' E 004°59'0 0.0
2018-Feb-12 11:30N 43°24' E 004°59'0 0.0
2018-Feb-12 10:54N 43°24' E 004°59'0 0.0
2018-Feb-12 10:30N 43°24' E 004°59'0 0.0
2018-Feb-12 10:00N 43°24' E 004°59'0 0.0
2018-Feb-12 09:30N 43°24' E 004°59'0 0.0
2018-Feb-12 09:00N 43°24' E 004°59'0 0.0
2018-Feb-12 08:30N 43°24' E 004°59'0 0.0
2018-Feb-12 08:00N 43°24' E 004°59'0 0.0
2018-Feb-12 07:30N 43°24' E 004°59'0 0.0
2018-Feb-11 13:47N 43°24' E 004°59'2 6.7
2018-Feb-11 13:29N 43°22' E 004°60'2 2.8
2018-Feb-11 12:45N 43°24' E 004°59'0 0.0
2018-Feb-11 12:27N 43°24' E 004°59'0 0.0
2018-Feb-11 11:57N 43°24' E 004°59'0 0.0
2018-Feb-11 11:27N 43°24' E 004°59'0 0.0
2018-Feb-11 11:00N 43°24' E 004°59'3 5.1
2018-Feb-11 10:26N 43°21' E 004°60'3 6.2
2018-Feb-11 10:00N 43°24' E 004°59'0 0.8
2018-Feb-11 09:30N 43°24' E 004°59'3 5.9
2018-Feb-11 08:59N 43°21' E 005°00'4 6.3
2018-Feb-11 08:25N 43°24' E 004°59'0 0.0
2018-Feb-11 07:55N 43°24' E 004°59'0 0.0
2018-Feb-11 07:25N 43°24' E 004°59'0 0.0
2018-Feb-11 06:49N 43°24' E 004°59'0 0.0
2018-Feb-11 06:25N 43°24' E 004°59'1 1.2
2018-Feb-11 06:00N 43°24' E 004°59'3 3.5
2018-Feb-11 05:08N 43°21' E 004°59'213.2
2018-Feb-11 05:00N 43°23' E 004°59'2 3.1
2018-Feb-11 04:26N 43°24' E 004°59'0 0.0
2018-Feb-10 09:24N 43°24' E 004°59'0 0.0
2018-Feb-10 08:58N 43°24' E 004°59'0 0.0
2018-Feb-10 08:27N 43°24' E 004°59'0 0.0
2018-Feb-09 12:00N 43°24' E 004°59'2 0.1
2018-Feb-08 09:00N 43°22' E 004°59'2 0.1
2018-Feb-07 09:29N 43°24' E 004°59'0 0.0
2018-Feb-07 08:59N 43°24' E 004°59'0 0.0
2018-Feb-07 08:29N 43°24' E 004°59'0 0.0
2018-Feb-07 08:00N 43°24' E 004°59'2 2.9
2018-Feb-07 07:13N 43°22' E 004°59'210.5
2018-Feb-07 07:00N 43°24' E 004°59'0 0.0
2018-Feb-07 02:42N 43°24' E 004°59'2 9.0
2018-Feb-07 02:27N 43°22' E 004°59'2 4.6
2018-Feb-07 01:56N 43°24' E 004°59'0 0.0
2018-Feb-06 15:30N 43°24' E 004°59'0 0.0
2018-Feb-06 15:00N 43°24' E 004°59'  

Dump ship's entire track history